createdAt,value
2019-01-05T00:07:10.334Z,-1.30
2019-01-05T00:10:16.385Z,-1.30
2019-01-05T00:13:16.092Z,-1.40
2019-01-05T00:16:15.786Z,-1.30
2019-01-05T00:19:18.635Z,-1.30
2019-01-05T00:22:18.068Z,-1.30
2019-01-05T00:25:17.530Z,-1.30
2019-01-05T00:28:17.915Z,-1.30
2019-01-05T00:31:18.188Z,-1.30
2019-01-05T00:34:18.244Z,-1.30
2019-01-05T00:37:15.071Z,-1.30
2019-01-05T00:46:35.677Z,-1.20
2019-01-05T00:49:39.227Z,-1.20
2019-01-05T00:52:42.101Z,-1.20
2019-01-05T00:55:41.970Z,-1.20
2019-01-05T00:58:41.954Z,-1.20
2019-01-05T01:01:42.725Z,-1.20
2019-01-05T01:04:42.996Z,-1.20
2019-01-05T01:14:24.443Z,-1.10
2019-01-05T01:20:36.385Z,-1.10
2019-01-05T01:23:38.980Z,-1.10
2019-01-05T01:26:38.795Z,-1.10
2019-01-05T01:29:44.372Z,-1.10
2019-01-05T01:32:44.539Z,-1.10
2019-01-05T01:35:40.692Z,-1.10
2019-01-05T01:38:40.688Z,-1.10
2019-01-05T01:41:40.683Z,-1.10
2019-01-05T01:44:40.991Z,-1.10
2019-01-05T01:47:41.060Z,-1.00
2019-01-05T01:50:40.967Z,-1.00
2019-01-05T01:53:44.348Z,-1.00
2019-01-05T02:03:09.999Z,-0.90
2019-01-05T02:06:05.483Z,-0.90
2019-01-05T02:09:11.838Z,-0.90
2019-01-05T02:12:11.440Z,-0.90
2019-01-05T02:15:11.572Z,-0.90
2019-01-05T02:18:12.151Z,-0.90
2019-01-05T02:21:12.525Z,-0.80
2019-01-05T02:24:12.572Z,-0.90
2019-01-05T02:27:13.053Z,-0.90
2019-01-05T02:30:15.749Z,-0.80
2019-01-05T02:33:15.862Z,-0.80
2019-01-05T02:36:18.329Z,-0.80
2019-01-05T02:39:29.877Z,-0.80
2019-01-05T02:42:51.211Z,-0.80
2019-01-05T02:45:51.041Z,-0.80
2019-01-05T02:48:51.413Z,-0.70
2019-01-05T02:51:51.331Z,-0.70
2019-01-05T02:54:47.913Z,-0.70
2019-01-05T02:57:47.705Z,-0.70
2019-01-05T03:00:47.396Z,-0.70
2019-01-05T03:03:39.058Z,-0.60
2019-01-05T03:06:38.981Z,-0.60
2019-01-05T03:09:39.108Z,-0.60
2019-01-05T03:12:42.300Z,-0.60
2019-01-05T03:22:31.574Z,-0.60
2019-01-05T03:25:50.489Z,-0.60
2019-01-05T03:29:07.841Z,-0.60
2019-01-05T03:32:34.769Z,-0.60
2019-01-05T03:35:35.030Z,-0.60
2019-01-05T03:38:30.241Z,-0.60
2019-01-05T03:41:23.657Z,-0.60
2019-01-05T03:44:24.308Z,-0.70
2019-01-05T03:47:24.535Z,-0.60
2019-01-05T03:50:24.204Z,-0.60
2019-01-05T03:53:24.745Z,-0.60
2019-01-05T03:56:21.236Z,-0.60
2019-01-05T03:59:21.857Z,-0.60
2019-01-05T04:02:21.647Z,-0.60
2019-01-05T04:08:25.430Z,-0.60
2019-01-05T04:11:25.414Z,-0.50
2019-01-05T04:14:25.688Z,-0.50
2019-01-05T04:17:25.853Z,-0.50
2019-01-05T04:20:26.230Z,-0.50
2019-01-05T04:23:32.027Z,-0.50
2019-01-05T04:26:32.513Z,-0.40
2019-01-05T04:29:32.376Z,-0.40
2019-01-05T04:32:31.940Z,-0.40
2019-01-05T04:35:33.471Z,-0.40
2019-01-05T04:41:48.528Z,-0.30
2019-01-05T04:44:52.639Z,-0.30
2019-01-05T04:47:47.690Z,-0.30
2019-01-05T04:51:08.707Z,-0.30
2019-01-05T04:54:08.681Z,-0.30
2019-01-05T04:57:08.994Z,-0.30
2019-01-05T05:03:27.361Z,-0.20
2019-01-05T05:06:19.140Z,-0.20
2019-01-05T05:09:19.193Z,-0.20
2019-01-05T05:12:18.958Z,-0.10
2019-01-05T05:21:51.275Z,-0.10
2019-01-05T05:25:04.195Z,-0.10
2019-01-05T05:31:21.812Z,-0.10
2019-01-05T05:34:15.341Z,-0.10
2019-01-05T05:40:36.004Z,0.00
2019-01-05T05:43:36.470Z,0.00
2019-01-05T05:46:33.172Z,0.00
2019-01-05T05:49:33.364Z,0.00
2019-01-05T05:52:36.419Z,0.00
2019-01-05T05:55:36.730Z,0.00
2019-01-05T05:58:36.964Z,0.10
2019-01-05T06:01:37.278Z,0.10
2019-01-05T06:04:37.524Z,0.10
2019-01-05T06:07:44.281Z,0.10
2019-01-05T06:10:43.975Z,0.10
2019-01-05T06:13:46.090Z,0.10
2019-01-05T06:16:46.040Z,0.20
2019-01-05T06:19:46.384Z,0.20
2019-01-05T06:22:46.521Z,0.20
2019-01-05T06:25:46.326Z,0.20
2019-01-05T06:28:46.189Z,0.20
2019-01-05T06:31:46.113Z,0.20
2019-01-05T06:34:45.716Z,0.30
2019-01-05T06:37:38.542Z,0.30
2019-01-05T06:40:39.368Z,0.30
2019-01-05T06:44:05.672Z,0.40
2019-01-05T06:47:05.165Z,0.40
2019-01-05T06:50:01.827Z,0.50
2019-01-05T06:52:56.278Z,0.60
2019-01-05T06:55:56.299Z,0.50
2019-01-05T06:58:50.617Z,0.40
2019-01-05T07:01:54.018Z,0.40
2019-01-05T07:04:54.528Z,0.40
2019-01-05T07:07:54.069Z,0.40
2019-01-05T07:10:54.229Z,0.40
2019-01-05T07:13:54.538Z,0.40
2019-01-05T07:16:54.692Z,0.40
2019-01-05T07:19:54.836Z,0.40
2019-01-05T07:22:54.591Z,0.40
2019-01-05T07:25:54.675Z,0.40
2019-01-05T07:28:54.788Z,0.40
2019-01-05T07:31:54.697Z,0.40
2019-01-05T07:34:54.739Z,0.40
2019-01-05T07:38:15.232Z,0.40
2019-01-05T07:41:15.662Z,0.40
2019-01-05T07:44:15.801Z,0.40
2019-01-05T07:47:20.358Z,0.50
2019-01-05T07:50:20.987Z,0.50
2019-01-05T07:53:20.723Z,0.50
2019-01-05T07:56:19.906Z,0.50
2019-01-05T07:59:19.879Z,0.50
2019-01-05T08:02:22.951Z,0.50
2019-01-05T08:05:22.705Z,0.50
2019-01-05T08:08:22.764Z,0.50
2019-01-05T08:11:23.068Z,0.50
2019-01-05T08:14:22.959Z,0.50
2019-01-05T08:17:28.362Z,0.50
2019-01-05T08:20:28.536Z,0.50
2019-01-05T08:23:28.799Z,0.50
2019-01-05T08:26:29.051Z,0.60
2019-01-05T08:29:29.477Z,0.60
2019-01-05T08:32:29.393Z,0.60
2019-01-05T08:35:29.418Z,0.60
2019-01-05T08:41:44.875Z,0.60
2019-01-05T08:44:44.835Z,0.60
2019-01-05T08:47:44.844Z,0.70
2019-01-05T08:50:44.906Z,0.70
2019-01-05T08:53:47.622Z,0.80
2019-01-05T08:56:46.380Z,0.70
2019-01-05T08:59:46.639Z,0.70
2019-01-05T09:02:46.361Z,0.70
2019-01-05T09:05:46.343Z,0.70
2019-01-05T09:09:06.698Z,0.70
2019-01-05T09:12:33.006Z,0.70
2019-01-05T09:15:32.822Z,0.70
2019-01-05T09:18:32.841Z,0.70
2019-01-05T09:24:48.004Z,0.80
2019-01-05T09:27:48.246Z,0.80
2019-01-05T09:30:48.337Z,0.80
2019-01-05T09:33:49.011Z,0.80
2019-01-05T09:36:48.836Z,0.80
2019-01-05T09:39:48.811Z,0.80
2019-01-05T09:42:48.744Z,0.80
2019-01-05T09:45:48.824Z,0.80
2019-01-05T09:48:49.056Z,0.80
2019-01-05T09:51:47.898Z,1.00
2019-01-05T09:54:51.121Z,0.90
2019-01-05T09:57:49.458Z,0.90
2019-01-05T10:00:49.828Z,0.90
2019-01-05T10:03:52.663Z,0.90
2019-01-05T10:06:52.989Z,0.90
2019-01-05T10:09:56.034Z,0.90
2019-01-05T10:12:56.764Z,0.90
2019-01-05T10:15:59.505Z,0.90
2019-01-05T10:22:14.536Z,1.00
2019-01-05T10:25:14.914Z,1.00
2019-01-05T10:28:15.186Z,1.00
2019-01-05T10:31:15.484Z,1.00
2019-01-05T10:34:15.889Z,1.00
2019-01-05T10:37:15.844Z,1.10
2019-01-05T10:40:16.345Z,1.10
2019-01-05T10:43:16.963Z,1.30
2019-01-05T10:46:17.071Z,1.30
2019-01-05T10:49:19.775Z,1.60
2019-01-05T10:52:22.391Z,1.50
2019-01-05T10:55:22.849Z,1.50
2019-01-05T10:58:23.409Z,1.40
2019-01-05T11:01:18.140Z,1.40
2019-01-05T11:04:33.494Z,1.40
2019-01-05T11:07:33.848Z,1.30
2019-01-05T11:10:34.175Z,1.30
2019-01-05T11:13:37.728Z,1.30
2019-01-05T11:16:37.765Z,1.40
2019-01-05T11:19:38.108Z,1.40
2019-01-05T11:22:35.479Z,1.50
2019-01-05T11:25:41.169Z,1.50
2019-01-05T11:28:42.022Z,1.50
2019-01-05T11:31:42.130Z,1.60
2019-01-05T11:34:42.333Z,1.60
2019-01-05T11:37:43.989Z,1.60
2019-01-05T11:40:44.496Z,1.60
2019-01-05T11:43:44.175Z,1.60
2019-01-05T11:46:44.770Z,1.60
2019-01-05T11:49:45.056Z,1.60
2019-01-05T11:52:47.611Z,1.70
2019-01-05T11:55:50.620Z,1.70
2019-01-05T11:58:51.197Z,1.70
2019-01-05T12:01:54.269Z,1.70
2019-01-05T12:04:54.810Z,1.70
2019-01-05T12:07:55.070Z,1.70
2019-01-05T12:10:55.068Z,1.70
2019-01-05T12:13:57.956Z,1.70
2019-01-05T12:17:01.201Z,1.70
2019-01-05T12:20:03.641Z,1.80
2019-01-05T12:23:04.103Z,1.80
2019-01-05T12:26:04.411Z,1.80
2019-01-05T12:29:04.082Z,1.80
2019-01-05T12:32:04.612Z,1.80
2019-01-05T12:35:07.564Z,1.80
2019-01-05T12:38:07.866Z,1.80
2019-01-05T12:41:10.496Z,1.80
2019-01-05T12:47:48.458Z,1.80
2019-01-05T12:50:48.026Z,1.80
2019-01-05T12:53:48.627Z,1.80
2019-01-05T12:56:47.158Z,1.80
2019-01-05T12:59:47.163Z,1.80
2019-01-05T13:02:47.376Z,1.90
2019-01-05T13:05:47.369Z,1.90
2019-01-05T13:08:47.177Z,1.90
2019-01-05T13:11:53.749Z,1.80
2019-01-05T13:14:54.349Z,1.80
2019-01-05T13:24:10.519Z,1.80
2019-01-05T13:27:10.083Z,1.80
2019-01-05T13:30:09.624Z,1.90
2019-01-05T13:33:10.001Z,1.90
2019-01-05T13:35:52.920Z,1.80
2019-01-05T13:42:25.141Z,1.80
2019-01-05T13:45:48.322Z,1.80
2019-01-05T13:48:46.783Z,1.80
2019-01-05T13:51:50.606Z,1.80
2019-01-05T13:58:14.802Z,1.80
2019-01-05T14:01:07.587Z,1.80
2019-01-05T14:04:08.312Z,1.80
2019-01-05T14:07:14.035Z,1.70
2019-01-05T14:10:13.466Z,1.70
2019-01-05T14:13:13.501Z,1.70
2019-01-05T14:16:13.976Z,1.70
2019-01-05T14:19:16.372Z,1.70
2019-01-05T14:22:15.979Z,1.60
2019-01-05T14:25:16.165Z,1.60
2019-01-05T14:28:20.521Z,1.60
2019-01-05T14:31:28.010Z,1.60
2019-01-05T14:34:28.388Z,1.60
2019-01-05T14:37:29.262Z,1.50
2019-01-05T14:40:29.472Z,1.50
2019-01-05T14:43:25.426Z,1.40
2019-01-05T14:46:32.880Z,1.40
2019-01-05T14:52:47.223Z,1.30
2019-01-05T14:55:47.631Z,1.30
2019-01-05T14:58:47.580Z,1.30
2019-01-05T15:01:47.778Z,1.30
2019-01-05T15:08:00.591Z,1.20
2019-01-05T15:11:07.731Z,1.20
2019-01-05T15:14:07.655Z,1.20
2019-01-05T15:17:07.928Z,1.10
2019-01-05T15:20:08.020Z,1.10
2019-01-05T15:23:07.528Z,1.10
2019-01-05T15:26:07.766Z,1.10
2019-01-05T15:29:07.955Z,1.10
2019-01-05T15:32:08.264Z,1.10
2019-01-05T15:35:08.763Z,1.10
2019-01-05T15:38:14.145Z,1.00
2019-01-05T15:41:19.551Z,1.00
2019-01-05T15:44:19.005Z,1.00
2019-01-05T15:47:15.464Z,1.00
2019-01-05T15:50:15.472Z,1.10
2019-01-05T15:53:20.601Z,1.10
2019-01-05T15:56:20.305Z,1.10
2019-01-05T15:59:20.092Z,1.10
2019-01-05T16:02:20.262Z,1.10
2019-01-05T16:05:20.220Z,1.10
2019-01-05T16:08:20.619Z,1.10
2019-01-05T16:11:28.925Z,1.10
2019-01-05T16:14:28.772Z,1.10
2019-01-05T16:17:29.237Z,1.10
2019-01-05T16:20:28.978Z,1.10
2019-01-05T16:23:35.360Z,1.10
2019-01-05T16:29:50.942Z,1.10
2019-01-05T16:32:51.139Z,1.10
2019-01-05T16:35:51.529Z,1.10
2019-01-05T16:38:52.044Z,1.10
2019-01-05T16:41:52.285Z,1.10
2019-01-05T16:44:58.219Z,1.10
2019-01-05T16:47:57.956Z,1.10
2019-01-05T16:50:58.982Z,1.20
2019-01-05T16:53:59.265Z,1.10
2019-01-05T16:56:51.969Z,1.10
2019-01-05T16:59:51.714Z,1.10
2019-01-05T17:02:52.231Z,1.10
2019-01-05T17:05:52.540Z,1.10
2019-01-05T17:08:55.160Z,1.10
2019-01-05T17:11:55.572Z,1.10
2019-01-05T17:14:56.046Z,1.20
2019-01-05T17:17:56.337Z,1.10
2019-01-05T17:20:52.059Z,1.10
2019-01-05T17:27:05.428Z,1.10
2019-01-05T17:30:05.387Z,1.10
2019-01-05T17:33:04.936Z,1.10
2019-01-05T17:36:05.600Z,1.10
2019-01-05T17:39:05.802Z,1.10
2019-01-05T17:42:06.317Z,1.10
2019-01-05T17:45:06.710Z,1.00
2019-01-05T17:48:06.997Z,1.00
2019-01-05T17:51:07.283Z,1.00
2019-01-05T17:54:07.676Z,1.00
2019-01-05T17:57:13.717Z,1.00
2019-01-05T18:00:13.912Z,1.00
2019-01-05T18:03:13.662Z,1.00
2019-01-05T18:06:21.496Z,1.00
2019-01-05T18:09:26.765Z,1.00
2019-01-05T18:12:24.316Z,1.00
2019-01-05T18:15:24.209Z,1.00
2019-01-05T18:18:27.603Z,1.00
2019-01-05T18:21:28.189Z,1.00
2019-01-05T18:24:27.919Z,1.10
2019-01-05T18:27:26.262Z,1.10
2019-01-05T18:30:26.133Z,1.10
2019-01-05T18:33:26.316Z,1.20
2019-01-05T18:36:26.536Z,1.10
2019-01-05T18:39:26.816Z,1.20
2019-01-05T18:42:27.086Z,1.10
2019-01-05T18:45:30.379Z,1.10
2019-01-05T18:48:33.223Z,1.20
2019-01-05T18:51:36.117Z,1.20
2019-01-05T18:54:36.373Z,1.20
2019-01-05T18:57:36.888Z,1.20
2019-01-05T19:00:37.030Z,1.20
2019-01-05T19:03:37.144Z,1.20
2019-01-05T19:06:43.349Z,1.10
2019-01-05T19:09:43.523Z,1.10
2019-01-05T19:12:43.897Z,1.10
2019-01-05T19:15:43.444Z,1.10
2019-01-05T19:18:44.038Z,1.10
2019-01-05T19:21:38.023Z,1.10
2019-01-05T19:24:38.211Z,1.10
2019-01-05T19:27:36.907Z,1.00
2019-01-05T19:30:39.640Z,1.00
2019-01-05T19:33:39.822Z,1.00
2019-01-05T19:36:40.029Z,1.10
2019-01-05T19:39:44.695Z,1.10
2019-01-05T19:42:44.768Z,1.00
2019-01-05T19:45:44.690Z,1.00
2019-01-05T19:48:44.288Z,1.00
2019-01-05T19:51:44.427Z,1.00
2019-01-05T19:54:44.669Z,0.90
2019-01-05T19:57:47.702Z,0.90
2019-01-05T20:03:49.066Z,0.90
2019-01-05T20:06:49.272Z,0.90
2019-01-05T20:09:49.541Z,0.90
2019-01-05T20:12:49.534Z,0.90
2019-01-05T20:15:49.150Z,0.90
2019-01-05T20:18:52.501Z,0.90
2019-01-05T20:21:52.984Z,0.90
2019-01-05T20:24:53.244Z,0.90
2019-01-05T20:31:05.841Z,0.90
2019-01-05T20:34:06.200Z,0.90
2019-01-05T20:37:04.301Z,0.90
2019-01-05T20:43:16.545Z,0.90
2019-01-05T20:46:16.192Z,0.80
2019-01-05T20:49:16.382Z,0.90
2019-01-05T20:52:16.908Z,0.80
2019-01-05T20:55:20.788Z,0.80
2019-01-05T20:58:20.739Z,0.80
2019-01-05T21:01:21.321Z,0.80
2019-01-05T21:04:24.479Z,0.80
2019-01-05T21:07:30.785Z,0.80
2019-01-05T21:10:31.272Z,0.80
2019-01-05T21:13:31.368Z,0.90
2019-01-05T21:16:37.232Z,0.90
2019-01-05T21:19:37.937Z,0.90
2019-01-05T21:22:37.673Z,0.90
2019-01-05T21:25:37.756Z,0.90
2019-01-05T21:28:34.871Z,0.90
2019-01-05T21:31:34.333Z,0.90
2019-01-05T21:34:34.202Z,0.80
2019-01-05T21:37:34.098Z,0.80
2019-01-05T21:40:34.324Z,0.80
2019-01-05T21:43:34.617Z,0.90
2019-01-05T21:46:34.982Z,0.90
2019-01-05T21:49:35.541Z,0.90
2019-01-05T21:52:41.685Z,0.90
2019-01-05T21:55:48.057Z,0.90
2019-01-05T21:58:48.559Z,0.80
2019-01-05T22:01:54.280Z,0.80
2019-01-05T22:04:54.563Z,0.90
2019-01-05T22:08:00.316Z,0.90
2019-01-05T22:11:01.042Z,0.80
2019-01-05T22:14:01.809Z,0.80
2019-01-05T22:17:01.912Z,0.80
2019-01-05T22:20:06.964Z,0.80
2019-01-05T22:23:06.723Z,0.80
2019-01-05T22:26:07.052Z,0.80
2019-01-05T22:29:06.232Z,0.80
2019-01-05T22:32:06.879Z,0.80
2019-01-05T22:38:24.197Z,0.80
2019-01-05T22:41:27.634Z,0.80
2019-01-05T22:44:29.907Z,0.80
2019-01-05T22:47:29.854Z,0.80
2019-01-05T22:50:29.746Z,0.80
2019-01-05T22:53:36.047Z,0.80
2019-01-05T22:56:38.839Z,0.70
2019-01-05T22:59:39.289Z,0.70
2019-01-05T23:02:39.413Z,0.70
2019-01-05T23:05:29.807Z,0.70
2019-01-05T23:08:30.145Z,0.70
2019-01-05T23:11:30.451Z,0.60
2019-01-05T23:14:30.937Z,0.60
2019-01-05T23:17:30.884Z,0.60
2019-01-05T23:20:30.971Z,0.60
2019-01-05T23:23:31.229Z,0.60
2019-01-05T23:26:31.663Z,0.60
2019-01-05T23:29:31.479Z,0.60
2019-01-05T23:32:31.424Z,0.60
2019-01-05T23:35:31.738Z,0.60
2019-01-05T23:38:31.573Z,0.60
2019-01-05T23:41:38.960Z,0.60
2019-01-05T23:44:46.707Z,0.60
2019-01-05T23:50:59.474Z,0.50
2019-01-05T23:57:14.261Z,0.50
